createdAt,value
2022-10-18T00:00:58.228Z,11.20
2022-10-18T00:03:26.215Z,11.20
2022-10-18T00:05:54.351Z,11.10
2022-10-18T00:08:22.461Z,11.10
2022-10-18T00:10:53.259Z,11.00
2022-10-18T00:13:21.766Z,11.10
2022-10-18T00:15:53.872Z,11.00
2022-10-18T00:18:21.938Z,11.00
2022-10-18T00:20:58.789Z,11.00
2022-10-18T00:23:27.411Z,11.00
2022-10-18T00:25:59.535Z,11.00
2022-10-18T00:28:27.464Z,11.00
2022-10-18T00:30:55.359Z,11.00
2022-10-18T00:33:23.309Z,11.00
2022-10-18T00:35:51.176Z,10.80
2022-10-18T00:38:19.162Z,10.80
2022-10-18T00:40:47.064Z,10.80
2022-10-18T00:43:16.354Z,10.70
2022-10-18T00:45:44.263Z,10.80
2022-10-18T00:48:13.821Z,10.70
2022-10-18T00:50:41.910Z,10.70
2022-10-18T00:53:12.474Z,10.60
2022-10-18T00:55:40.650Z,10.60
2022-10-18T00:58:09.248Z,10.50
2022-10-18T01:00:39.742Z,10.60
2022-10-18T01:03:08.852Z,10.50
2022-10-18T01:05:38.941Z,10.40
2022-10-18T01:08:33.338Z,10.40
2022-10-18T01:11:09.702Z,10.40
2022-10-18T01:13:43.875Z,10.40
2022-10-18T01:16:21.079Z,10.40
2022-10-18T01:18:54.039Z,10.50
2022-10-18T01:21:40.758Z,10.40
2022-10-18T01:24:14.962Z,10.40
2022-10-18T01:27:01.358Z,10.30
2022-10-18T01:29:47.792Z,10.20
2022-10-18T01:32:27.156Z,10.20
2022-10-18T01:34:58.654Z,10.20
2022-10-18T01:37:28.220Z,10.20
2022-10-18T01:39:57.415Z,10.30
2022-10-18T01:42:25.964Z,10.10
2022-10-18T01:44:54.478Z,10.00
2022-10-18T01:47:22.850Z,10.00
2022-10-18T01:49:56.949Z,10.00
2022-10-18T01:52:25.542Z,10.00
2022-10-18T01:54:54.438Z,10.00
2022-10-18T01:57:31.621Z,10.00
2022-10-18T02:00:11.725Z,9.90
2022-10-18T02:02:43.633Z,9.80
2022-10-18T02:05:30.569Z,9.70
2022-10-18T02:08:22.079Z,9.70
2022-10-18T02:11:08.351Z,9.80
2022-10-18T02:13:45.982Z,9.80
2022-10-18T02:16:17.111Z,9.80
2022-10-18T02:18:48.126Z,9.70
2022-10-18T02:21:18.533Z,9.70
2022-10-18T02:23:47.535Z,9.70
2022-10-18T02:26:18.924Z,9.60
2022-10-18T02:28:49.276Z,9.60
2022-10-18T02:31:22.146Z,9.50
2022-10-18T02:34:02.436Z,9.40
2022-10-18T02:36:30.305Z,9.40
2022-10-18T02:39:02.006Z,9.40
2022-10-18T02:41:31.062Z,9.30
2022-10-18T02:43:58.993Z,9.30
2022-10-18T02:48:54.849Z,9.30
2022-10-18T02:51:22.837Z,9.30
2022-10-18T02:53:50.722Z,9.10
2022-10-18T02:56:18.748Z,9.10
2022-10-18T02:58:46.753Z,9.10
2022-10-18T03:01:14.656Z,9.10
2022-10-18T03:03:42.602Z,9.10
2022-10-18T03:06:10.553Z,9.00
2022-10-18T03:08:38.570Z,9.00
2022-10-18T03:11:06.946Z,9.00
2022-10-18T03:13:34.876Z,9.00
2022-10-18T03:16:02.853Z,9.00
2022-10-18T03:18:30.869Z,8.90
2022-10-18T03:20:58.857Z,8.90
2022-10-18T03:23:26.774Z,8.90
2022-10-18T03:25:54.912Z,8.90
2022-10-18T03:28:22.863Z,8.80
2022-10-18T03:30:50.853Z,8.80
2022-10-18T03:33:19.017Z,8.80
2022-10-18T03:35:46.984Z,8.80
2022-10-18T03:38:14.968Z,8.70
2022-10-18T03:40:42.969Z,8.70
2022-10-18T03:43:10.953Z,8.70
2022-10-18T03:45:38.988Z,8.70
2022-10-18T03:48:07.179Z,8.60
2022-10-18T03:50:35.221Z,8.70
2022-10-18T03:53:03.209Z,8.60
2022-10-18T03:55:33.485Z,8.70
2022-10-18T03:58:01.392Z,8.60
2022-10-18T04:00:29.407Z,8.60
2022-10-18T04:02:57.406Z,8.60
2022-10-18T04:05:28.052Z,8.60
2022-10-18T04:07:55.960Z,8.50
2022-10-18T04:10:24.905Z,8.50
2022-10-18T04:12:52.893Z,8.50
2022-10-18T04:15:21.382Z,8.40
2022-10-18T04:17:49.374Z,8.40
2022-10-18T04:20:17.387Z,8.40
2022-10-18T04:22:45.495Z,8.40
2022-10-18T04:25:13.418Z,8.30
2022-10-18T04:27:41.581Z,8.40
2022-10-18T04:30:09.771Z,8.30
2022-10-18T04:32:37.997Z,8.40
2022-10-18T04:35:06.557Z,8.30
2022-10-18T04:37:34.725Z,8.30
2022-10-18T04:40:03.649Z,8.30
2022-10-18T04:42:31.608Z,8.30
2022-10-18T04:44:59.965Z,8.30
2022-10-18T04:47:27.844Z,8.30
2022-10-18T04:49:56.021Z,8.30
2022-10-18T04:52:26.387Z,8.30
2022-10-18T04:54:54.566Z,8.30
2022-10-18T04:57:23.506Z,8.30
2022-10-18T04:59:51.457Z,8.20
2022-10-18T05:02:19.447Z,8.20
2022-10-18T05:04:47.332Z,8.20
2022-10-18T05:07:15.450Z,8.20
2022-10-18T05:09:43.504Z,8.20
2022-10-18T05:12:11.508Z,8.20
2022-10-18T05:14:39.570Z,8.20
2022-10-18T05:17:07.489Z,8.20
2022-10-18T05:19:35.439Z,8.20
2022-10-18T05:22:03.475Z,8.20
2022-10-18T05:24:31.440Z,8.30
2022-10-18T05:26:59.476Z,8.20
2022-10-18T05:32:15.306Z,8.20
2022-10-18T05:34:43.363Z,8.20
2022-10-18T05:37:11.304Z,8.20
2022-10-18T05:39:39.250Z,8.30
2022-10-18T05:42:07.193Z,8.20
2022-10-18T05:44:35.117Z,8.30
2022-10-18T05:47:03.106Z,8.30
2022-10-18T05:49:30.997Z,8.30
2022-10-18T05:51:58.962Z,8.30
2022-10-18T05:54:27.007Z,8.50
2022-10-18T05:56:54.929Z,8.60
2022-10-18T05:59:22.974Z,8.80
2022-10-18T06:01:50.877Z,9.20
2022-10-18T06:04:18.857Z,9.50
2022-10-18T06:06:46.801Z,9.90
2022-10-18T06:09:14.978Z,10.20
2022-10-18T06:11:42.881Z,10.40
2022-10-18T06:14:10.842Z,10.80
2022-10-18T06:16:38.830Z,11.10
2022-10-18T06:19:07.075Z,11.40
2022-10-18T06:21:35.210Z,11.60
2022-10-18T06:24:03.260Z,11.90
2022-10-18T06:26:31.207Z,12.10
2022-10-18T06:28:59.171Z,12.40
2022-10-18T06:31:27.212Z,12.60
2022-10-18T06:33:56.470Z,12.90
2022-10-18T06:36:24.594Z,13.10
2022-10-18T06:38:52.470Z,13.30
2022-10-18T06:41:20.800Z,13.50
2022-10-18T06:43:49.657Z,13.80
2022-10-18T06:46:20.012Z,14.10
2022-10-18T06:48:50.431Z,14.30
2022-10-18T06:51:18.829Z,14.60
2022-10-18T06:53:59.606Z,14.80
2022-10-18T06:56:34.661Z,15.10
2022-10-18T06:59:02.844Z,15.40
2022-10-18T07:01:30.948Z,15.60
2022-10-18T07:03:59.040Z,15.90
2022-10-18T07:06:27.243Z,16.10
2022-10-18T07:08:55.326Z,16.40
2022-10-18T07:11:27.612Z,16.70
2022-10-18T07:14:01.155Z,17.00
2022-10-18T07:16:32.084Z,17.20
2022-10-18T07:19:00.256Z,17.60
2022-10-18T07:21:30.462Z,17.90
2022-10-18T07:23:58.390Z,18.20
2022-10-18T07:26:30.525Z,18.40
2022-10-18T07:29:00.770Z,18.70
2022-10-18T07:31:33.720Z,19.00
2022-10-18T07:34:03.829Z,19.30
2022-10-18T07:36:31.979Z,19.50
2022-10-18T07:39:00.133Z,19.50
2022-10-18T07:41:29.256Z,19.70
2022-10-18T07:43:57.333Z,20.10
2022-10-18T07:46:25.319Z,20.20
2022-10-18T07:48:53.439Z,20.40
2022-10-18T07:51:21.838Z,20.60
2022-10-18T07:53:49.951Z,20.70
2022-10-18T07:56:21.345Z,20.90
2022-10-18T07:58:51.664Z,21.10
2022-10-18T08:01:20.406Z,21.40
2022-10-18T08:03:48.398Z,21.60
2022-10-18T08:06:17.027Z,22.00
2022-10-18T08:08:46.197Z,22.30
2022-10-18T08:11:15.973Z,22.50
2022-10-18T08:13:44.116Z,22.80
2022-10-18T08:16:16.848Z,23.00
2022-10-18T08:18:48.383Z,23.10
2022-10-18T08:21:16.840Z,23.30
2022-10-18T08:23:44.996Z,23.50
2022-10-18T08:26:19.318Z,23.80
2022-10-18T08:28:54.124Z,24.00
2022-10-18T08:31:31.761Z,24.20
2022-10-18T08:34:00.387Z,24.50
2022-10-18T08:36:31.618Z,24.70
2022-10-18T08:38:59.746Z,24.90
2022-10-18T08:41:39.670Z,25.20
2022-10-18T08:44:17.118Z,25.50
2022-10-18T08:46:59.050Z,25.90
2022-10-18T08:49:30.213Z,26.00
2022-10-18T08:51:59.464Z,26.30
2022-10-18T08:54:35.094Z,26.70
2022-10-18T08:57:04.782Z,26.90
2022-10-18T08:59:38.415Z,27.20
2022-10-18T09:02:26.660Z,27.60
2022-10-18T09:04:54.656Z,27.70
2022-10-18T09:07:37.106Z,27.90
2022-10-18T09:10:29.592Z,28.10
2022-10-18T09:13:06.992Z,28.40
2022-10-18T09:16:10.520Z,28.80
2022-10-18T09:18:45.074Z,28.90
2022-10-18T09:21:19.587Z,29.30
2022-10-18T09:23:51.498Z,29.70
2022-10-18T09:26:20.832Z,30.00
2022-10-18T09:28:48.734Z,30.00
2022-10-18T09:31:23.439Z,30.20
2022-10-18T09:33:51.435Z,30.40
2022-10-18T09:36:24.733Z,30.50
2022-10-18T09:38:59.855Z,30.60
2022-10-18T09:41:28.782Z,30.80
2022-10-18T09:44:00.597Z,31.00
2022-10-18T09:46:32.698Z,31.40
2022-10-18T09:49:03.536Z,31.50
2022-10-18T09:51:35.936Z,31.60
2022-10-18T09:54:06.972Z,31.60
2022-10-18T09:56:41.961Z,31.80
2022-10-18T09:59:32.735Z,30.80
2022-10-18T10:02:00.790Z,30.20
2022-10-18T10:04:31.077Z,29.90
2022-10-18T10:07:00.679Z,29.50
2022-10-18T10:09:36.814Z,28.80
2022-10-18T10:12:05.011Z,29.10
2022-10-18T10:14:43.068Z,29.20
2022-10-18T10:17:30.147Z,28.90
2022-10-18T10:20:04.235Z,28.80
2022-10-18T10:22:35.205Z,29.40
2022-10-18T10:25:03.406Z,29.60
2022-10-18T10:27:34.090Z,30.00
2022-10-18T10:30:07.043Z,30.00
2022-10-18T10:32:46.407Z,30.10
2022-10-18T10:35:41.534Z,30.40
2022-10-18T10:38:23.504Z,28.60
2022-10-18T10:40:52.495Z,26.30
2022-10-18T10:43:39.995Z,26.40
2022-10-18T10:46:13.347Z,26.50
2022-10-18T10:49:00.355Z,26.20
2022-10-18T10:51:42.916Z,26.40
2022-10-18T10:54:22.327Z,25.80
2022-10-18T10:57:02.498Z,25.40
2022-10-18T10:59:32.166Z,25.30
2022-10-18T11:02:18.604Z,25.60
2022-10-18T11:04:47.794Z,26.20
2022-10-18T11:07:37.050Z,26.40
2022-10-18T11:10:14.074Z,26.10
2022-10-18T11:12:42.302Z,25.80
2022-10-18T11:15:10.701Z,25.50
2022-10-18T11:17:57.559Z,25.20
2022-10-18T11:20:25.579Z,24.90
2022-10-18T11:22:56.602Z,25.20
2022-10-18T11:25:27.156Z,24.80
2022-10-18T11:28:00.393Z,24.50
2022-10-18T11:30:28.435Z,24.80
2022-10-18T11:33:16.513Z,24.90
2022-10-18T11:35:52.297Z,25.30
2022-10-18T11:38:32.003Z,25.90
2022-10-18T11:41:00.054Z,25.80
2022-10-18T11:44:01.305Z,25.80
2022-10-18T11:46:41.518Z,25.80
2022-10-18T11:49:13.017Z,26.00
2022-10-18T11:52:11.831Z,26.30
2022-10-18T11:54:55.411Z,26.20
2022-10-18T11:57:23.360Z,26.00
2022-10-18T12:00:09.905Z,25.90
2022-10-18T12:02:43.082Z,26.20
2022-10-18T12:05:23.168Z,26.60
2022-10-18T12:08:02.853Z,26.40
2022-10-18T12:10:44.284Z,26.10
2022-10-18T12:13:18.798Z,26.20
2022-10-18T12:15:47.900Z,26.20
2022-10-18T12:18:20.732Z,26.20
2022-10-18T12:20:55.834Z,26.30
2022-10-18T12:23:26.748Z,26.40
2022-10-18T12:25:56.710Z,26.30
2022-10-18T12:28:39.172Z,26.20
2022-10-18T12:31:13.436Z,26.30
2022-10-18T12:33:43.635Z,26.20
2022-10-18T12:36:26.855Z,26.20
2022-10-18T12:38:54.726Z,26.30
2022-10-18T12:41:29.945Z,26.50
2022-10-18T12:44:07.214Z,26.50
2022-10-18T12:47:01.846Z,26.40
2022-10-18T12:49:33.715Z,26.40
2022-10-18T12:52:03.760Z,26.40
2022-10-18T12:54:33.550Z,26.40
2022-10-18T12:57:02.022Z,26.60
2022-10-18T12:59:29.943Z,26.40
2022-10-18T13:01:57.878Z,26.50
2022-10-18T13:04:28.835Z,26.40
2022-10-18T13:07:05.858Z,26.20
2022-10-18T13:09:36.925Z,26.00
2022-10-18T13:12:07.910Z,26.00
2022-10-18T13:15:05.731Z,26.00
2022-10-18T13:17:58.423Z,25.80
2022-10-18T13:20:38.538Z,25.70
2022-10-18T13:23:09.573Z,25.60
2022-10-18T13:25:52.346Z,25.30
2022-10-18T13:28:29.475Z,25.20
2022-10-18T13:31:09.748Z,25.20
2022-10-18T13:33:39.757Z,25.10
2022-10-18T13:36:22.482Z,25.10
2022-10-18T13:38:55.976Z,25.10
2022-10-18T13:44:29.158Z,24.90
2022-10-18T13:47:00.127Z,24.90
2022-10-18T13:49:37.270Z,24.70
2022-10-18T13:52:18.780Z,24.70
2022-10-18T13:55:05.396Z,24.60
2022-10-18T13:57:39.508Z,24.40
2022-10-18T14:00:16.951Z,24.30
2022-10-18T14:03:03.902Z,24.20
2022-10-18T14:06:04.579Z,24.10
2022-10-18T14:11:23.338Z,23.80
2022-10-18T14:14:03.619Z,23.60
2022-10-18T14:16:43.873Z,23.40
2022-10-18T14:19:17.941Z,23.30
2022-10-18T14:22:04.404Z,23.10
2022-10-18T14:24:32.870Z,22.80
2022-10-18T14:27:11.575Z,22.60
2022-10-18T14:29:39.972Z,22.30
2022-10-18T14:32:09.653Z,22.20
2022-10-18T14:34:38.048Z,21.90
2022-10-18T14:37:06.320Z,21.60
2022-10-18T14:39:34.289Z,21.30
2022-10-18T14:42:03.103Z,21.10
2022-10-18T14:44:32.445Z,20.80
2022-10-18T14:47:00.339Z,20.70
2022-10-18T14:49:29.170Z,20.50
2022-10-18T14:51:59.440Z,20.30
2022-10-18T14:54:33.223Z,20.00
2022-10-18T14:57:02.806Z,19.90
2022-10-18T14:59:45.794Z,19.70
2022-10-18T15:02:20.230Z,19.60
2022-10-18T15:05:10.415Z,19.40
2022-10-18T15:07:40.086Z,19.30
2022-10-18T15:10:14.308Z,19.10
2022-10-18T15:13:08.328Z,18.90
2022-10-18T15:15:33.423Z,18.70
2022-10-18T15:18:03.905Z,18.60
2022-10-18T15:20:33.639Z,18.40
2022-10-18T15:23:25.307Z,18.30
2022-10-18T15:26:00.420Z,18.10
2022-10-18T15:28:33.376Z,18.00
2022-10-18T15:31:02.800Z,17.80
2022-10-18T15:33:35.000Z,17.70
2022-10-18T15:36:26.706Z,17.50
2022-10-18T15:39:03.874Z,17.40
2022-10-18T15:41:50.780Z,17.20
2022-10-18T15:44:20.731Z,17.00
2022-10-18T15:46:49.296Z,16.90
2022-10-18T15:49:54.816Z,16.80
2022-10-18T15:52:35.169Z,16.70
2022-10-18T15:55:24.207Z,16.60
2022-10-18T15:57:52.110Z,16.40
2022-10-18T16:00:21.065Z,16.30
2022-10-18T16:02:49.064Z,16.10
2022-10-18T16:05:17.306Z,16.00
2022-10-18T16:07:45.341Z,15.80
2022-10-18T16:10:14.357Z,15.80
2022-10-18T16:12:42.390Z,15.70
2022-10-18T16:15:10.585Z,15.60
2022-10-18T16:17:38.540Z,15.50
2022-10-18T16:20:06.954Z,15.40
2022-10-18T16:22:37.043Z,15.30
2022-10-18T16:25:05.419Z,15.20
2022-10-18T16:27:33.370Z,15.10
2022-10-18T16:30:01.391Z,15.00
2022-10-18T16:32:29.469Z,14.90
2022-10-18T16:34:57.554Z,14.80
2022-10-18T16:37:25.456Z,14.70
2022-10-18T16:39:53.330Z,14.70
2022-10-18T16:42:21.338Z,14.60
2022-10-18T16:44:49.509Z,14.50
2022-10-18T16:47:18.267Z,14.40
2022-10-18T16:49:47.179Z,14.30
2022-10-18T16:52:15.214Z,14.20
2022-10-18T16:54:43.158Z,14.10
2022-10-18T16:57:13.035Z,14.00
2022-10-18T16:59:41.107Z,14.00
2022-10-18T17:02:09.590Z,13.90
2022-10-18T17:04:37.556Z,13.80
2022-10-18T17:07:05.803Z,13.70
2022-10-18T17:09:35.269Z,13.60
2022-10-18T17:12:03.323Z,13.50
2022-10-18T17:14:34.981Z,13.50
2022-10-18T17:17:03.133Z,13.30
2022-10-18T17:19:31.057Z,13.30
2022-10-18T17:22:02.560Z,13.20
2022-10-18T17:24:31.021Z,13.10
2022-10-18T17:26:59.078Z,13.10
2022-10-18T17:29:27.157Z,13.00
2022-10-18T17:31:55.193Z,12.90
2022-10-18T17:34:23.227Z,12.90
2022-10-18T17:36:51.102Z,12.80
2022-10-18T17:39:19.271Z,12.70
2022-10-18T17:41:47.154Z,12.60
2022-10-18T17:44:15.283Z,12.60
2022-10-18T17:46:43.353Z,12.50
2022-10-18T17:49:11.356Z,12.50
2022-10-18T17:51:40.926Z,12.40
2022-10-18T17:54:09.345Z,12.40
2022-10-18T17:56:37.263Z,12.30
2022-10-18T17:59:05.222Z,12.30
2022-10-18T18:01:33.507Z,12.20
2022-10-18T18:04:02.148Z,12.10
2022-10-18T18:06:39.339Z,12.00
2022-10-18T18:09:08.637Z,12.00
2022-10-18T18:11:37.233Z,11.90
2022-10-18T18:14:09.927Z,11.90
2022-10-18T18:16:38.693Z,11.90
2022-10-18T18:19:09.672Z,11.70
2022-10-18T18:21:38.662Z,11.60
2022-10-18T18:24:07.352Z,11.60
2022-10-18T18:26:35.603Z,11.60
2022-10-18T18:31:51.622Z,11.40
2022-10-18T18:34:22.392Z,11.30
2022-10-18T18:36:52.214Z,11.30
2022-10-18T18:39:25.152Z,11.30
2022-10-18T18:41:53.480Z,11.30
2022-10-18T18:44:21.959Z,11.20
2022-10-18T18:46:49.835Z,11.00
2022-10-18T18:49:17.835Z,11.00
2022-10-18T18:51:46.032Z,10.90
2022-10-18T18:54:14.759Z,10.90
2022-10-18T18:56:43.062Z,10.80
2022-10-18T18:59:15.109Z,10.80
2022-10-18T19:01:43.638Z,10.70
2022-10-18T19:04:11.762Z,10.60
2022-10-18T19:06:44.763Z,10.50
2022-10-18T19:09:19.614Z,10.50
2022-10-18T19:11:48.653Z,10.40
2022-10-18T19:14:16.586Z,10.40
2022-10-18T19:16:54.510Z,10.40
2022-10-18T19:19:23.584Z,10.40
2022-10-18T19:21:52.956Z,10.30
2022-10-18T19:24:21.946Z,10.20
2022-10-18T19:26:55.942Z,10.10
2022-10-18T19:29:24.046Z,10.10
2022-10-18T19:31:52.938Z,10.00
2022-10-18T19:34:22.037Z,10.00
2022-10-18T19:36:50.813Z,9.90
2022-10-18T19:39:19.800Z,9.80
2022-10-18T19:41:49.643Z,9.80
2022-10-18T19:44:20.614Z,9.60
2022-10-18T19:46:49.117Z,9.60
2022-10-18T19:49:17.211Z,9.50
2022-10-18T19:51:45.593Z,9.60
2022-10-18T19:54:14.692Z,9.60
2022-10-18T19:56:43.113Z,9.50
2022-10-18T19:59:11.802Z,9.40
2022-10-18T20:01:39.887Z,9.30
2022-10-18T20:04:08.712Z,9.30
2022-10-18T20:06:37.204Z,9.30
2022-10-18T20:09:06.314Z,9.10
2022-10-18T20:11:34.194Z,9.10
2022-10-18T20:14:02.604Z,9.10
2022-10-18T20:16:31.642Z,9.20
2022-10-18T20:19:00.738Z,9.10
2022-10-18T20:21:29.951Z,9.10
2022-10-18T20:23:57.862Z,8.90
2022-10-18T20:26:26.213Z,8.90
2022-10-18T20:28:59.044Z,8.90
2022-10-18T20:31:35.901Z,8.80
2022-10-18T20:34:04.897Z,8.90
2022-10-18T20:36:33.143Z,8.80
2022-10-18T20:39:02.573Z,8.80
2022-10-18T20:41:31.777Z,8.70
2022-10-18T20:44:01.206Z,8.60
2022-10-18T20:46:33.090Z,8.60
2022-10-18T20:49:01.575Z,8.60
2022-10-18T20:51:29.705Z,8.50
2022-10-18T20:53:57.709Z,8.40
2022-10-18T20:56:29.162Z,8.40
2022-10-18T20:58:57.654Z,8.50
2022-10-18T21:01:26.470Z,8.40
2022-10-18T21:03:55.762Z,8.50
2022-10-18T21:06:30.360Z,8.40
2022-10-18T21:08:59.562Z,8.40
2022-10-18T21:11:28.286Z,8.40
2022-10-18T21:13:59.217Z,8.40
2022-10-18T21:16:27.394Z,8.40
2022-10-18T21:18:55.394Z,8.40
2022-10-18T21:21:23.988Z,8.30
2022-10-18T21:23:52.521Z,8.20
2022-10-18T21:26:21.925Z,8.10
2022-10-18T21:28:50.689Z,8.10
2022-10-18T21:31:22.811Z,8.10
2022-10-18T21:33:54.593Z,8.10
2022-10-18T21:36:22.889Z,8.10
2022-10-18T21:38:51.030Z,8.10
2022-10-18T21:41:20.313Z,8.00
2022-10-18T21:43:49.536Z,8.00
2022-10-18T21:46:18.074Z,8.10
2022-10-18T21:48:48.093Z,8.10
2022-10-18T21:51:18.066Z,8.00
2022-10-18T21:53:47.442Z,8.00
2022-10-18T21:56:16.940Z,8.00
2022-10-18T21:58:45.550Z,8.00
2022-10-18T22:01:21.074Z,7.90
2022-10-18T22:03:50.223Z,7.90
2022-10-18T22:06:18.335Z,7.80
2022-10-18T22:08:53.980Z,7.90
2022-10-18T22:11:26.337Z,7.90
2022-10-18T22:13:55.025Z,7.80
2022-10-18T22:16:23.128Z,7.80
2022-10-18T22:18:52.062Z,7.70
2022-10-18T22:21:20.488Z,7.70
2022-10-18T22:23:49.541Z,7.60
2022-10-18T22:26:19.114Z,7.60
2022-10-18T22:28:47.723Z,7.60
2022-10-18T22:31:20.466Z,7.60
2022-10-18T22:33:53.476Z,7.50
2022-10-18T22:36:21.610Z,7.50
2022-10-18T22:38:49.491Z,7.40
2022-10-18T22:41:17.408Z,7.40
2022-10-18T22:43:45.520Z,7.40
2022-10-18T22:46:14.396Z,7.40
2022-10-18T22:48:42.767Z,7.40
2022-10-18T22:51:11.104Z,7.30
2022-10-18T22:53:40.169Z,7.20
2022-10-18T22:56:09.430Z,7.20
2022-10-18T22:58:37.381Z,7.10
2022-10-18T23:01:06.683Z,7.20
2022-10-18T23:03:34.854Z,7.20
2022-10-18T23:06:02.907Z,7.20
2022-10-18T23:08:31.144Z,7.20
2022-10-18T23:10:59.772Z,7.10
2022-10-18T23:13:28.051Z,7.10
2022-10-18T23:16:04.305Z,7.00
2022-10-18T23:18:33.082Z,7.00
2022-10-18T23:21:04.880Z,7.00
2022-10-18T23:23:35.777Z,6.90
2022-10-18T23:26:05.131Z,6.90
2022-10-18T23:28:33.871Z,6.90
2022-10-18T23:31:05.558Z,6.90
2022-10-18T23:33:33.524Z,6.90
2022-10-18T23:36:01.511Z,6.90
2022-10-18T23:38:30.605Z,6.80
2022-10-18T23:40:59.649Z,6.90
2022-10-18T23:43:27.830Z,6.80
2022-10-18T23:45:55.733Z,6.80
2022-10-18T23:48:24.088Z,6.80
2022-10-18T23:50:52.014Z,6.80
2022-10-18T23:53:20.358Z,6.70
2022-10-18T23:55:54.370Z,6.70
2022-10-18T23:58:22.540Z,6.70
